Time;durP1;ratioP1;P1;durP2;ratioP2;P2;SDS_P1;SDS_P2;PMS_P1;PMS_P2;Temp;Humidity;BMP_temperature;BMP_pressure;BME280_temperature;BME280_humidity;BME280_pressure;Samples;Min_cycle;Max_cycle;Signal;HPM_P1;HPM_P2
2023/03/16 00:00:08;;;;;;;26.08;4.80;;;;;;;;;;5050622;28;20032;-73
2023/03/16 00:02:34;;;;;;;28.67;5.32;;;;;;;;;;5050660;28;20019;-73
2023/03/16 00:05:00;;;;;;;23.23;4.80;;;;;;;;;;5050729;28;20386;-73
2023/03/16 00:07:26;;;;;;;26.13;4.90;;;;;;;;;;5050692;28;20055;-72
2023/03/16 00:09:53;;;;;;;29.05;6.88;;;;;;;;;;5050558;28;20104;-73
2023/03/16 00:12:20;;;;;;;26.13;6.18;;;;;;;;;;5050617;28;20028;-73
2023/03/16 00:14:47;;;;;;;31.13;7.63;;;;;;;;;;5050800;28;20078;-72
2023/03/16 00:17:17;;;;;;;32.72;9.20;;;;;;;;;;5051547;28;20059;-73
2023/03/16 00:20:17;;;;;;;37.35;7.93;;;;;;;;;;5051694;28;20067;-72
2023/03/16 00:22:44;;;;;;;28.42;7.63;;;;;;;;;;5051349;28;20031;-72
2023/03/16 00:25:11;;;;;;;26.38;6.75;;;;;;;;;;5053385;28;20433;-74
2023/03/16 00:27:37;;;;;;;33.28;6.82;;;;;;;;;;5055646;28;20609;-73
2023/03/16 00:30:04;;;;;;;37.08;6.47;;;;;;;;;;5055213;28;20352;-73
2023/03/16 00:32:31;;;;;;;26.65;6.65;;;;;;;;;;5054956;28;20472;-72
2023/03/16 00:34:57;;;;;;;32.53;6.25;;;;;;;;;;5055198;28;20032;-73
2023/03/16 00:37:24;;;;;;;27.92;5.75;;;;;;;;;;5055365;28;20033;-73
2023/03/16 00:39:51;;;;;;;21.65;5.85;;;;;;;;;;5055436;28;20055;-74
2023/03/16 00:42:18;;;;;;;22.30;5.15;;;;;;;;;;5054798;28;20025;-73
2023/03/16 00:44:44;;;;;;;21.55;5.55;;;;;;;;;;5054881;28;20033;-73
2023/03/16 00:47:14;;;;;;;23.40;5.40;;;;;;;;;;5054803;28;20029;-73
2023/03/16 00:49:41;;;;;;;34.30;6.25;;;;;;;;;;5054819;28;20025;-73
2023/03/16 00:52:08;;;;;;;25.98;5.40;;;;;;;;;;5054506;28;20056;-72
2023/03/16 00:54:35;;;;;;;26.98;5.57;;;;;;;;;;5054683;28;20056;-73
2023/03/16 00:57:02;;;;;;;28.40;5.65;;;;;;;;;;5054730;28;20029;-73
2023/03/16 00:59:29;;;;;;;30.20;5.72;;;;;;;;;;5054650;28;20025;-73
2023/03/16 01:01:55;;;;;;;23.73;5.40;;;;;;;;;;5049597;28;20039;-73
2023/03/16 01:04:22;;;;;;;27.10;5.10;;;;;;;;;;5054368;28;20021;-73
2023/03/16 01:06:48;;;;;;;21.55;5.00;;;;;;;;;;5054414;28;20029;-73
2023/03/16 01:09:14;;;;;;;31.25;5.57;;;;;;;;;;5054576;28;20082;-74
2023/03/16 01:11:42;;;;;;;23.13;4.60;;;;;;;;;;5054684;28;20036;-72
2023/03/16 01:14:08;;;;;;;27.67;5.15;;;;;;;;;;5054407;28;20025;-73
2023/03/16 01:16:34;;;;;;;26.75;5.55;;;;;;;;;;5054305;28;20461;-74
2023/03/16 01:19:01;;;;;;;26.52;5.40;;;;;;;;;;5054273;28;20218;-73
2023/03/16 01:21:27;;;;;;;28.02;5.25;;;;;;;;;;5054158;28;20475;-74
2023/03/16 01:23:53;;;;;;;32.33;6.38;;;;;;;;;;5053975;28;20033;-73
2023/03/16 01:26:21;;;;;;;27.95;5.43;;;;;;;;;;5054163;28;20078;-73
2023/03/16 01:28:48;;;;;;;23.02;5.50;;;;;;;;;;5054653;28;20104;-73
2023/03/16 01:31:14;;;;;;;22.80;5.35;;;;;;;;;;5055300;28;20029;-73
2023/03/16 01:33:41;;;;;;;26.33;5.32;;;;;;;;;;5066444;28;20019;-73
2023/03/16 01:36:12;;;;;;;33.90;6.00;;;;;;;;;;5076996;28;20021;-73
2023/03/16 01:38:38;;;;;;;21.88;5.43;;;;;;;;;;5054302;28;20021;-72
2023/03/16 01:41:05;;;;;;;34.85;6.80;;;;;;;;;;5054085;28;20029;-73
2023/03/16 01:43:33;;;;;;;28.73;5.40;;;;;;;;;;5053646;28;20033;-74
2023/03/16 01:46:04;;;;;;;30.33;6.47;;;;;;;;;;5053783;28;20036;-74
2023/03/16 01:48:36;;;;;;;29.33;5.57;;;;;;;;;;5054132;28;20039;-73
2023/03/16 01:51:03;;;;;;;24.50;6.28;;;;;;;;;;5053707;28;20024;-74
2023/03/16 01:53:29;;;;;;;20.63;5.50;;;;;;;;;;5053341;28;20087;-74
2023/03/16 01:55:54;;;;;;;23.30;5.45;;;;;;;;;;5053519;28;20025;-73
2023/03/16 01:58:20;;;;;;;24.42;5.85;;;;;;;;;;5053614;28;20021;-74
2023/03/16 02:00:47;;;;;;;35.92;5.88;;;;;;;;;;5053445;28;20029;-73
2023/03/16 02:03:15;;;;;;;23.35;5.60;;;;;;;;;;5053140;28;20494;-74
2023/03/16 02:05:47;;;;;;;37.65;6.68;;;;;;;;;;5053347;28;20052;-73
2023/03/16 02:08:13;;;;;;;31.30;6.35;;;;;;;;;;5053385;28;20407;-74
2023/03/16 02:10:39;;;;;;;27.67;6.20;;;;;;;;;;5053458;28;20087;-74
2023/03/16 02:13:06;;;;;;;30.13;6.40;;;;;;;;;;5052952;28;20036;-73
2023/03/16 02:15:34;;;;;;;21.52;5.68;;;;;;;;;;5054224;28;20176;-72
2023/03/16 02:18:01;;;;;;;30.13;5.63;;;;;;;;;;5053056;28;20047;-73
2023/03/16 02:20:43;;;;;;;22.58;5.70;;;;;;;;;;5053159;28;20028;-73
2023/03/16 02:23:17;;;;;;;40.33;6.32;;;;;;;;;;5051782;28;20164;-73
2023/03/16 02:26:01;;;;;;;29.38;5.47;;;;;;;;;;5053037;28;20028;-74
2023/03/16 02:28:31;;;;;;;24.20;4.82;;;;;;;;;;5053202;28;20371;-73
2023/03/16 02:30:57;;;;;;;29.15;5.00;;;;;;;;;;5053027;28;20062;-74
2023/03/16 02:33:24;;;;;;;24.52;5.03;;;;;;;;;;5052654;28;20068;-72
2023/03/16 02:35:50;;;;;;;29.55;5.20;;;;;;;;;;5052664;28;20036;-72
2023/03/16 02:38:16;;;;;;;17.70;4.88;;;;;;;;;;5052799;28;20029;-73
2023/03/16 02:40:44;;;;;;;26.17;5.80;;;;;;;;;;5052676;28;20031;-72
2023/03/16 02:43:15;;;;;;;27.00;4.97;;;;;;;;;;5052587;28;20100;-72
2023/03/16 02:45:46;;;;;;;18.25;4.97;;;;;;;;;;5052654;28;20029;-74
2023/03/16 02:48:16;;;;;;;23.38;5.03;;;;;;;;;;5051923;28;20143;-72
2023/03/16 02:50:45;;;;;;;24.10;5.80;;;;;;;;;;5052721;28;20074;-73
2023/03/16 02:53:12;;;;;;;25.73;5.15;;;;;;;;;;5052305;28;20027;-73
2023/03/16 02:55:38;;;;;;;29.17;6.28;;;;;;;;;;5052449;28;20021;-72
2023/03/16 02:58:04;;;;;;;33.13;7.22;;;;;;;;;;5052276;28;20035;-73
2023/03/16 03:00:31;;;;;;;31.27;5.72;;;;;;;;;;5052275;28;20390;-72
2023/03/16 03:02:57;;;;;;;24.27;5.32;;;;;;;;;;5051948;28;20024;-73
2023/03/16 03:05:23;;;;;;;19.17;5.13;;;;;;;;;;5052162;28;20021;-73
2023/03/16 03:07:49;;;;;;;26.17;6.07;;;;;;;;;;5052102;28;20421;-73
2023/03/16 03:10:15;;;;;;;24.15;5.85;;;;;;;;;;5052116;28;20104;-73
2023/03/16 03:12:41;;;;;;;24.35;5.47;;;;;;;;;;5051905;28;20055;-73
2023/03/16 03:15:08;;;;;;;31.15;5.40;;;;;;;;;;5052070;28;20033;-74
2023/03/16 03:17:33;;;;;;;22.77;5.80;;;;;;;;;;5051903;28;20033;-72
2023/03/16 03:20:12;;;;;;;28.08;6.50;;;;;;;;;;5051731;28;20082;-73
2023/03/16 03:22:38;;;;;;;36.20;6.47;;;;;;;;;;5051665;28;20025;-73
2023/03/16 03:25:05;;;;;;;20.90;5.75;;;;;;;;;;5051922;28;20028;-73
2023/03/16 03:27:32;;;;;;;25.63;5.40;;;;;;;;;;5052756;28;20031;-73
2023/03/16 03:29:58;;;;;;;30.98;6.25;;;;;;;;;;5061550;28;20427;-72
2023/03/16 03:32:24;;;;;;;22.27;5.40;;;;;;;;;;5060107;28;20064;-71
2023/03/16 03:34:50;;;;;;;32.25;5.88;;;;;;;;;;5057045;28;20035;-71
2023/03/16 03:37:16;;;;;;;20.38;5.65;;;;;;;;;;5059604;28;20021;-72
2023/03/16 03:39:42;;;;;;;26.27;5.63;;;;;;;;;;5048879;28;20029;-72
2023/03/16 03:42:08;;;;;;;21.35;6.32;;;;;;;;;;5049228;28;20418;-72
2023/03/16 03:44:34;;;;;;;23.98;5.65;;;;;;;;;;5052981;28;20025;-71
2023/03/16 03:47:00;;;;;;;21.08;5.97;;;;;;;;;;5049790;28;20477;-71
2023/03/16 03:49:26;;;;;;;24.55;6.10;;;;;;;;;;5052917;28;20025;-73
2023/03/16 03:51:52;;;;;;;21.10;5.65;;;;;;;;;;5049760;28;20025;-75
2023/03/16 03:54:18;;;;;;;28.27;6.40;;;;;;;;;;5055858;28;20025;-71
2023/03/16 03:56:44;;;;;;;23.88;5.90;;;;;;;;;;5049519;28;20133;-71
2023/03/16 03:59:10;;;;;;;29.15;5.63;;;;;;;;;;5052528;28;20152;-71
2023/03/16 04:01:36;;;;;;;23.85;6.70;;;;;;;;;;5054670;28;20104;-71
2023/03/16 04:04:02;;;;;;;22.88;7.63;;;;;;;;;;5060405;28;20164;-72
2023/03/16 04:06:28;;;;;;;22.63;6.20;;;;;;;;;;5054760;28;20044;-72
2023/03/16 04:08:54;;;;;;;26.25;6.07;;;;;;;;;;5055056;28;20021;-72
2023/03/16 04:11:21;;;;;;;18.33;6.13;;;;;;;;;;5054967;28;20441;-72
2023/03/16 04:13:47;;;;;;;18.50;5.25;;;;;;;;;;5059892;28;20028;-71
2023/03/16 04:16:15;;;;;;;19.58;6.00;;;;;;;;;;5052879;28;20025;-71
2023/03/16 04:18:41;;;;;;;16.88;5.85;;;;;;;;;;5053519;28;20025;-72
2023/03/16 04:21:07;;;;;;;17.02;5.25;;;;;;;;;;5054686;28;20021;-71
2023/03/16 04:23:33;;;;;;;27.83;6.82;;;;;;;;;;5054207;28;20453;-73
2023/03/16 04:26:00;;;;;;;20.40;4.97;;;;;;;;;;5054961;28;20096;-71
2023/03/16 04:28:26;;;;;;;25.23;6.03;;;;;;;;;;5049271;28;20030;-72
2023/03/16 04:30:55;;;;;;;23.40;5.47;;;;;;;;;;5045917;28;20043;-71
2023/03/16 04:33:22;;;;;;;17.95;5.63;;;;;;;;;;5047976;28;20029;-72
2023/03/16 04:35:48;;;;;;;23.23;6.18;;;;;;;;;;5042955;28;20060;-71
2023/03/16 04:38:14;;;;;;;16.98;5.43;;;;;;;;;;5044925;28;20076;-71
2023/03/16 04:40:40;;;;;;;25.80;5.18;;;;;;;;;;5052478;28;20084;-70
2023/03/16 04:43:06;;;;;;;18.48;5.22;;;;;;;;;;5053861;28;20449;-71
2023/03/16 04:45:32;;;;;;;21.35;5.25;;;;;;;;;;5054027;28;20485;-71
2023/03/16 04:47:58;;;;;;;18.33;5.15;;;;;;;;;;5053864;28;20100;-71
2023/03/16 04:50:24;;;;;;;20.58;5.70;;;;;;;;;;5053779;28;20032;-71
2023/03/16 04:52:50;;;;;;;23.05;5.68;;;;;;;;;;5053503;28;20100;-70
2023/03/16 04:55:17;;;;;;;18.10;4.78;;;;;;;;;;5054110;28;20102;-73
2023/03/16 04:57:43;;;;;;;23.52;5.38;;;;;;;;;;5054151;28;20052;-74
2023/03/16 05:00:18;;;;;;;17.63;4.80;;;;;;;;;;5053922;28;20025;-74
2023/03/16 05:02:47;;;;;;;21.45;5.63;;;;;;;;;;5053511;28;20017;-73
2023/03/16 05:05:14;;;;;;;21.90;6.63;;;;;;;;;;5054288;28;20074;-73
2023/03/16 05:07:40;;;;;;;20.90;6.18;;;;;;;;;;5054730;28;20031;-74
2023/03/16 05:10:07;;;;;;;21.00;5.82;;;;;;;;;;5055420;28;20395;-73
2023/03/16 05:12:33;;;;;;;28.40;5.95;;;;;;;;;;5057633;28;20518;-72
2023/03/16 05:14:59;;;;;;;18.83;5.47;;;;;;;;;;5051598;28;20025;-74
2023/03/16 05:17:25;;;;;;;23.70;5.53;;;;;;;;;;5053125;28;20116;-76
2023/03/16 05:19:51;;;;;;;27.90;6.57;;;;;;;;;;5053130;28;20091;-76
2023/03/16 05:22:17;;;;;;;16.33;6.45;;;;;;;;;;5054106;28;20020;-72
2023/03/16 05:24:43;;;;;;;18.63;5.38;;;;;;;;;;5058650;28;20533;-72
2023/03/16 05:27:09;;;;;;;16.45;5.50;;;;;;;;;;5056748;28;20279;-72
2023/03/16 05:29:35;;;;;;;17.40;5.25;;;;;;;;;;5059195;28;20051;-73
2023/03/16 05:32:01;;;;;;;18.25;5.07;;;;;;;;;;5057892;28;20033;-73
2023/03/16 05:34:28;;;;;;;18.85;5.75;;;;;;;;;;5053900;28;20025;-71
2023/03/16 05:36:54;;;;;;;19.52;5.55;;;;;;;;;;5053384;28;20537;-74
2023/03/16 05:39:20;;;;;;;17.35;5.00;;;;;;;;;;5053981;28;20138;-74
2023/03/16 05:41:46;;;;;;;16.17;5.05;;;;;;;;;;5053616;28;20104;-74
2023/03/16 05:44:12;;;;;;;18.42;4.63;;;;;;;;;;5053430;28;20111;-75
2023/03/16 05:46:38;;;;;;;20.00;6.45;;;;;;;;;;5051840;28;20029;-77
2023/03/16 05:49:04;;;;;;;23.38;5.80;;;;;;;;;;5046278;28;20132;-76
2023/03/16 05:51:30;;;;;;;17.55;4.75;;;;;;;;;;5054861;28;20029;-77
2023/03/16 05:53:56;;;;;;;14.77;5.07;;;;;;;;;;5052254;28;20460;-77
2023/03/16 05:56:24;;;;;;;14.88;4.55;;;;;;;;;;5053503;28;20029;-75
2023/03/16 05:58:50;;;;;;;17.33;4.65;;;;;;;;;;5053199;28;20099;-74
2023/03/16 06:01:18;;;;;;;21.73;5.25;;;;;;;;;;5051526;28;20029;-73
2023/03/16 06:03:45;;;;;;;22.85;5.10;;;;;;;;;;5052660;28;20033;-74
2023/03/16 06:06:11;;;;;;;13.10;4.60;;;;;;;;;;5051259;28;20032;-72
2023/03/16 06:08:37;;;;;;;23.40;5.45;;;;;;;;;;5052931;28;20024;-74
2023/03/16 06:11:03;;;;;;;17.58;4.88;;;;;;;;;;5052827;28;20039;-76
2023/03/16 06:13:29;;;;;;;15.23;4.90;;;;;;;;;;5052790;28;20086;-74
2023/03/16 06:15:55;;;;;;;23.98;4.85;;;;;;;;;;5052298;28;20025;-73
2023/03/16 06:18:21;;;;;;;27.13;5.75;;;;;;;;;;5052247;28;20478;-75
2023/03/16 06:20:47;;;;;;;16.73;5.35;;;;;;;;;;5049984;28;20021;-74
2023/03/16 06:23:13;;;;;;;25.95;5.57;;;;;;;;;;5050604;28;20119;-74
2023/03/16 06:25:39;;;;;;;13.70;4.13;;;;;;;;;;5052011;28;20025;-75
2023/03/16 06:28:06;;;;;;;19.00;4.68;;;;;;;;;;5052157;28;20029;-76
2023/03/16 06:30:32;;;;;;;17.40;4.68;;;;;;;;;;5052908;28;20044;-76
2023/03/16 06:32:59;;;;;;;16.85;4.60;;;;;;;;;;5052275;28;20372;-75
2023/03/16 06:35:25;;;;;;;14.93;4.28;;;;;;;;;;5052133;28;20131;-74
2023/03/16 06:37:51;;;;;;;15.95;4.68;;;;;;;;;;5051869;28;20036;-74
2023/03/16 06:40:17;;;;;;;14.82;4.22;;;;;;;;;;5045298;28;20025;-74
2023/03/16 06:42:43;;;;;;;23.08;5.10;;;;;;;;;;5051617;28;20033;-73
2023/03/16 06:45:10;;;;;;;22.42;4.60;;;;;;;;;;5049906;28;20484;-76
2023/03/16 06:47:36;;;;;;;15.95;4.65;;;;;;;;;;5054841;28;20406;-75
2023/03/16 06:50:03;;;;;;;19.80;4.63;;;;;;;;;;5053268;28;20033;-75
2023/03/16 06:52:30;;;;;;;16.55;4.70;;;;;;;;;;5050457;28;20387;-78
2023/03/16 06:54:57;;;;;;;15.18;4.57;;;;;;;;;;5054167;28;20115;-75
2023/03/16 06:57:23;;;;;;;17.75;4.80;;;;;;;;;;5053184;28;20494;-75
2023/03/16 06:59:49;;;;;;;18.35;5.13;;;;;;;;;;5042310;28;20033;-75
2023/03/16 07:02:15;;;;;;;20.48;6.15;;;;;;;;;;5048766;28;20017;-75
2023/03/16 07:04:42;;;;;;;20.77;4.60;;;;;;;;;;5051100;28;20029;-75
2023/03/16 07:07:08;;;;;;;24.08;7.40;;;;;;;;;;5050844;28;20021;-75
2023/03/16 07:09:34;;;;;;;30.63;5.43;;;;;;;;;;5051391;28;20025;-75
2023/03/16 07:12:00;;;;;;;22.25;5.18;;;;;;;;;;5051760;28;20087;-75
2023/03/16 07:14:26;;;;;;;15.05;4.90;;;;;;;;;;5050046;28;20040;-77
2023/03/16 07:16:52;;;;;;;18.00;5.38;;;;;;;;;;5048796;28;20570;-75
2023/03/16 07:19:19;;;;;;;22.25;5.20;;;;;;;;;;5051101;28;20036;-73
2023/03/16 07:21:45;;;;;;;19.88;5.20;;;;;;;;;;5051239;28;20104;-74
2023/03/16 07:24:11;;;;;;;20.15;4.85;;;;;;;;;;5052215;28;20505;-73
2023/03/16 07:26:37;;;;;;;14.00;5.25;;;;;;;;;;5053662;28;20095;-72
2023/03/16 07:29:05;;;;;;;21.08;5.60;;;;;;;;;;5056481;28;20049;-74
2023/03/16 07:31:31;;;;;;;21.65;5.05;;;;;;;;;;5051956;28;20024;-72
2023/03/16 07:33:57;;;;;;;31.17;6.25;;;;;;;;;;5051481;28;20029;-72
2023/03/16 07:36:23;;;;;;;22.98;5.25;;;;;;;;;;5052267;28;20163;-72
2023/03/16 07:38:50;;;;;;;23.17;5.68;;;;;;;;;;5053151;28;20052;-72
2023/03/16 07:41:16;;;;;;;24.65;5.35;;;;;;;;;;5051830;28;20017;-72
2023/03/16 07:43:45;;;;;;;26.42;5.88;;;;;;;;;;5051980;28;20036;-72
2023/03/16 07:46:12;;;;;;;21.30;4.93;;;;;;;;;;5052367;28;20021;-72
2023/03/16 07:48:39;;;;;;;19.85;5.20;;;;;;;;;;5052247;28;20109;-74
2023/03/16 07:51:05;;;;;;;25.45;4.80;;;;;;;;;;5051111;28;20478;-72
2023/03/16 07:53:31;;;;;;;18.70;5.10;;;;;;;;;;5051174;28;20029;-78
2023/03/16 07:55:57;;;;;;;16.83;4.63;;;;;;;;;;5051730;28;20459;-72
2023/03/16 07:58:23;;;;;;;14.95;4.72;;;;;;;;;;5050828;28;20052;-73
2023/03/16 08:00:50;;;;;;;25.20;4.60;;;;;;;;;;5050450;28;20087;-72
2023/03/16 08:03:15;;;;;;;28.00;6.10;;;;;;;;;;5050412;28;20109;-72
2023/03/16 08:05:41;;;;;;;19.83;4.85;;;;;;;;;;5050483;28;20021;-71
2023/03/16 08:08:10;;;;;;;12.13;3.80;;;;;;;;;;5050381;28;20095;-72
2023/03/16 08:10:36;;;;;;;17.77;4.65;;;;;;;;;;5050040;28;20021;-73
2023/03/16 08:13:05;;;;;;;13.98;4.25;;;;;;;;;;5050110;28;20490;-72
2023/03/16 08:15:32;;;;;;;22.35;4.82;;;;;;;;;;5051202;28;20060;-75
2023/03/16 08:18:01;;;;;;;17.10;4.32;;;;;;;;;;5051495;28;20032;-76
2023/03/16 08:20:27;;;;;;;14.25;3.83;;;;;;;;;;5049509;28;20032;-71
2023/03/16 08:22:53;;;;;;;19.90;4.10;;;;;;;;;;5050840;28;20036;-74
2023/03/16 08:25:19;;;;;;;17.52;4.03;;;;;;;;;;5050679;28;20202;-72
2023/03/16 08:27:46;;;;;;;16.50;3.70;;;;;;;;;;5049870;28;20017;-72
2023/03/16 08:30:13;;;;;;;14.38;3.92;;;;;;;;;;5049915;28;20450;-72
2023/03/16 08:32:39;;;;;;;15.05;4.05;;;;;;;;;;5049953;28;20495;-72
2023/03/16 08:35:07;;;;;;;20.48;4.40;;;;;;;;;;5050095;28;20492;-73
2023/03/16 08:37:33;;;;;;;12.82;4.43;;;;;;;;;;5049950;28;20388;-72
2023/03/16 08:39:59;;;;;;;17.70;4.70;;;;;;;;;;5050169;28;20031;-72
2023/03/16 08:42:27;;;;;;;17.48;3.83;;;;;;;;;;5049597;28;20021;-71
2023/03/16 08:44:54;;;;;;;17.00;4.22;;;;;;;;;;5050228;28;20506;-73
2023/03/16 08:47:20;;;;;;;20.00;4.25;;;;;;;;;;5053366;28;20090;-74
2023/03/16 08:49:46;;;;;;;18.50;4.00;;;;;;;;;;5053682;28;20029;-73
2023/03/16 08:52:12;;;;;;;20.83;5.82;;;;;;;;;;5053299;28;20078;-73
2023/03/16 08:54:40;;;;;;;22.38;7.75;;;;;;;;;;5053753;28;20044;-72
2023/03/16 08:57:06;;;;;;;15.38;4.57;;;;;;;;;;5053786;28;20152;-72
2023/03/16 08:59:32;;;;;;;14.27;3.75;;;;;;;;;;5054430;28;20431;-75
2023/03/16 09:01:59;;;;;;;16.02;4.13;;;;;;;;;;5053460;28;20029;-75
2023/03/16 09:04:26;;;;;;;13.68;3.72;;;;;;;;;;5053683;28;20027;-70
2023/03/16 09:06:52;;;;;;;12.43;3.72;;;;;;;;;;5049394;28;20024;-71
2023/03/16 09:09:18;;;;;;;16.98;4.10;;;;;;;;;;5048630;28;20435;-70
2023/03/16 09:11:45;;;;;;;13.80;3.90;;;;;;;;;;5056968;28;20029;-71
2023/03/16 09:14:12;;;;;;;15.27;3.95;;;;;;;;;;5053693;28;20025;-73
2023/03/16 09:16:38;;;;;;;15.25;3.08;;;;;;;;;;5053693;28;20136;-71
2023/03/16 09:19:07;;;;;;;10.50;3.38;;;;;;;;;;5052529;28;20274;-75
2023/03/16 09:21:36;;;;;;;13.43;3.35;;;;;;;;;;5052962;28;20053;-71
2023/03/16 09:24:02;;;;;;;12.27;3.42;;;;;;;;;;5051861;28;20025;-71
2023/03/16 09:26:28;;;;;;;11.13;3.30;;;;;;;;;;5054326;28;20018;-73
2023/03/16 09:28:54;;;;;;;11.27;3.63;;;;;;;;;;5048391;28;20017;-71
2023/03/16 09:31:21;;;;;;;19.17;3.50;;;;;;;;;;5049129;28;20026;-72
2023/03/16 09:33:48;;;;;;;12.98;3.00;;;;;;;;;;5050986;28;20100;-71
2023/03/16 09:36:14;;;;;;;13.82;3.15;;;;;;;;;;5052859;28;20029;-73
2023/03/16 09:38:41;;;;;;;12.93;3.33;;;;;;;;;;5053354;28;20013;-73
2023/03/16 09:41:17;;;;;;;12.52;3.60;;;;;;;;;;5053228;28;20162;-75
2023/03/16 09:43:43;;;;;;;13.23;3.03;;;;;;;;;;5053281;28;20017;-76
2023/03/16 09:46:09;;;;;;;13.43;3.00;;;;;;;;;;5053171;28;20359;-74
2023/03/16 09:48:36;;;;;;;11.85;3.15;;;;;;;;;;5053578;28;20481;-74
2023/03/16 09:51:04;;;;;;;15.90;3.03;;;;;;;;;;5054519;28;20021;-75
2023/03/16 09:53:35;;;;;;;13.35;2.85;;;;;;;;;;5052556;28;20032;-72
2023/03/16 09:56:07;;;;;;;16.75;3.17;;;;;;;;;;5053518;28;20119;-73
2023/03/16 09:58:33;;;;;;;14.60;2.83;;;;;;;;;;5053022;28;20071;-73
2023/03/16 10:01:08;;;;;;;14.05;3.00;;;;;;;;;;5052741;28;20064;-74
2023/03/16 10:03:59;;;;;;;14.88;2.53;;;;;;;;;;5052198;28;20028;-73
2023/03/16 10:06:25;;;;;;;13.85;2.25;;;;;;;;;;5052684;28;20021;-72
2023/03/16 10:08:51;;;;;;;8.27;2.25;;;;;;;;;;5052839;28;20052;-72
2023/03/16 10:11:22;;;;;;;9.13;2.15;;;;;;;;;;5051995;28;20017;-73
2023/03/16 10:13:58;;;;;;;13.27;2.15;;;;;;;;;;5052174;28;20028;-76
2023/03/16 10:16:31;;;;;;;7.93;2.10;;;;;;;;;;5052761;28;20040;-75
2023/03/16 10:19:23;;;;;;;5.93;1.90;;;;;;;;;;5052184;28;20032;-76
2023/03/16 10:21:51;;;;;;;8.15;2.42;;;;;;;;;;5051729;28;20098;-77
2023/03/16 10:24:33;;;;;;;9.15;2.15;;;;;;;;;;5052388;28;20558;-77
2023/03/16 10:27:00;;;;;;;8.05;1.90;;;;;;;;;;5052404;28;20058;-78
2023/03/16 10:29:31;;;;;;;7.05;1.92;;;;;;;;;;5052586;28;20506;-73
2023/03/16 10:32:15;;;;;;;13.73;2.17;;;;;;;;;;5051749;28;20025;-73
2023/03/16 10:34:42;;;;;;;13.63;2.90;;;;;;;;;;5051709;28;20048;-72
2023/03/16 10:37:12;;;;;;;11.82;2.50;;;;;;;;;;5051961;28;20044;-73
2023/03/16 10:39:42;;;;;;;9.05;2.50;;;;;;;;;;5051580;28;20035;-72
2023/03/16 10:42:15;;;;;;;8.68;2.30;;;;;;;;;;5051810;28;20378;-73
2023/03/16 10:44:41;;;;;;;9.05;1.90;;;;;;;;;;5051825;28;20036;-72
2023/03/16 10:47:07;;;;;;;12.23;2.55;;;;;;;;;;5051405;28;20030;-72
2023/03/16 10:49:41;;;;;;;9.18;2.25;;;;;;;;;;5051254;28;20036;-73
2023/03/16 10:52:16;;;;;;;13.57;2.17;;;;;;;;;;5051098;28;20108;-73
2023/03/16 10:54:48;;;;;;;11.80;2.00;;;;;;;;;;5051477;28;20024;-72
2023/03/16 10:57:24;;;;;;;7.70;2.00;;;;;;;;;;5051468;28;20033;-74
2023/03/16 10:59:51;;;;;;;7.75;1.95;;;;;;;;;;5051853;28;20016;-71
2023/03/16 11:02:19;;;;;;;11.38;1.90;;;;;;;;;;5051186;28;20021;-74
2023/03/16 11:04:46;;;;;;;11.85;2.10;;;;;;;;;;5051180;28;20036;-73
2023/03/16 11:07:19;;;;;;;6.47;1.30;;;;;;;;;;5051380;28;20029;-73
2023/03/16 11:09:46;;;;;;;4.55;1.40;;;;;;;;;;5051895;28;20055;-73
2023/03/16 11:12:22;;;;;;;6.63;1.65;;;;;;;;;;5053503;28;20025;-74
2023/03/16 11:14:49;;;;;;;10.52;2.15;;;;;;;;;;5060201;28;20029;-70
2023/03/16 11:17:27;;;;;;;18.70;1.88;;;;;;;;;;5062583;28;20036;-74
2023/03/16 11:19:56;;;;;;;9.18;1.55;;;;;;;;;;5070477;28;20036;-72
2023/03/16 11:22:24;;;;;;;4.97;1.30;;;;;;;;;;5056309;28;20021;-72
2023/03/16 11:24:52;;;;;;;6.18;1.38;;;;;;;;;;5051197;28;20055;-71
2023/03/16 11:27:38;;;;;;;10.13;1.73;;;;;;;;;;5051075;28;20475;-73
2023/03/16 11:30:04;;;;;;;11.10;1.63;;;;;;;;;;5051064;28;20047;-72
2023/03/16 11:32:35;;;;;;;6.93;1.48;;;;;;;;;;5050584;28;20028;-72
2023/03/16 11:35:06;;;;;;;8.00;1.70;;;;;;;;;;5050379;28;20099;-72
2023/03/16 11:37:45;;;;;;;5.97;1.48;;;;;;;;;;5050235;28;20046;-72
2023/03/16 11:40:14;;;;;;;5.47;1.38;;;;;;;;;;5050907;28;20025;-73
2023/03/16 11:42:59;;;;;;;8.70;1.90;;;;;;;;;;5050376;28;20025;-73
2023/03/16 11:45:30;;;;;;;7.80;1.35;;;;;;;;;;5050605;28;20036;-72
2023/03/16 11:47:56;;;;;;;10.07;1.65;;;;;;;;;;5050643;28;20498;-72
2023/03/16 11:50:32;;;;;;;5.38;1.40;;;;;;;;;;5050951;28;20051;-72
2023/03/16 11:52:58;;;;;;;12.10;4.40;;;;;;;;;;5050312;28;20029;-72
2023/03/16 11:55:31;;;;;;;9.70;2.20;;;;;;;;;;5050596;28;20310;-71
2023/03/16 11:57:57;;;;;;;7.38;1.85;;;;;;;;;;5050570;28;20090;-72
2023/03/16 12:00:42;;;;;;;10.60;2.50;;;;;;;;;;5050243;28;20041;-71
2023/03/16 12:03:13;;;;;;;5.88;2.08;;;;;;;;;;5050532;28;20021;-74
2023/03/16 12:05:57;;;;;;;4.40;1.60;;;;;;;;;;5050369;28;20501;-72
2023/03/16 12:08:30;;;;;;;6.70;1.55;;;;;;;;;;5050337;28;20379;-73
2023/03/16 12:11:05;;;;;;;3.80;1.67;;;;;;;;;;5049952;28;20498;-72
2023/03/16 12:13:32;;;;;;;4.93;1.88;;;;;;;;;;5049933;28;20095;-72
2023/03/16 12:16:18;;;;;;;6.20;1.15;;;;;;;;;;5050277;28;20033;-72
2023/03/16 12:18:47;;;;;;;7.68;1.50;;;;;;;;;;5050050;28;20013;-73
2023/03/16 12:21:17;;;;;;;3.42;1.25;;;;;;;;;;5052028;28;20075;-72
2023/03/16 12:23:49;;;;;;;7.30;1.45;;;;;;;;;;5053684;28;20075;-71
2023/03/16 12:26:16;;;;;;;9.27;1.55;;;;;;;;;;5054102;28;20434;-73
2023/03/16 12:28:42;;;;;;;4.70;1.45;;;;;;;;;;5054142;28;20017;-74
2023/03/16 12:31:19;;;;;;;7.68;1.52;;;;;;;;;;5053191;28;20022;-72
2023/03/16 12:34:00;;;;;;;8.75;1.42;;;;;;;;;;5053880;28;20029;-76
2023/03/16 12:36:38;;;;;;;4.50;1.30;;;;;;;;;;5054450;28;20104;-74
2023/03/16 12:39:06;;;;;;;6.18;1.60;;;;;;;;;;5053996;28;20048;-74
2023/03/16 12:41:32;;;;;;;4.35;1.38;;;;;;;;;;5053778;28;20098;-73
2023/03/16 12:43:58;;;;;;;5.15;1.65;;;;;;;;;;5053572;28;20033;-73
2023/03/16 12:46:44;;;;;;;6.20;1.38;;;;;;;;;;5054060;28;20474;-74
2023/03/16 12:49:10;;;;;;;7.97;1.25;;;;;;;;;;5053779;28;20062;-73
2023/03/16 12:51:37;;;;;;;4.80;1.17;;;;;;;;;;5053061;28;20101;-72
2023/03/16 12:54:05;;;;;;;5.70;1.10;;;;;;;;;;5050763;28;20032;-72
2023/03/16 12:56:35;;;;;;;4.60;1.42;;;;;;;;;;5053148;28;20021;-72
2023/03/16 12:59:02;;;;;;;6.75;2.20;;;;;;;;;;5067019;28;20024;-71
2023/03/16 13:01:30;;;;;;;4.78;1.10;;;;;;;;;;5073640;28;20040;-73
2023/03/16 13:04:02;;;;;;;4.65;1.10;;;;;;;;;;5073042;28;20025;-72
2023/03/16 13:06:32;;;;;;;4.40;1.05;;;;;;;;;;5073530;28;20020;-72
2023/03/16 13:08:59;;;;;;;4.22;1.00;;;;;;;;;;5073014;28;20009;-73
2023/03/16 13:11:26;;;;;;;6.28;1.08;;;;;;;;;;5071747;28;20078;-73
2023/03/16 13:14:01;;;;;;;3.80;1.30;;;;;;;;;;5072131;28;20222;-72
2023/03/16 13:16:31;;;;;;;6.13;1.30;;;;;;;;;;5073004;28;20086;-72
2023/03/16 13:18:57;;;;;;;7.10;1.50;;;;;;;;;;5073246;28;20078;-72
2023/03/16 13:21:36;;;;;;;8.43;1.95;;;;;;;;;;5072958;28;20566;-72
2023/03/16 13:24:14;;;;;;;3.15;1.13;;;;;;;;;;5072792;28;20013;-74
2023/03/16 13:26:46;;;;;;;6.05;1.30;;;;;;;;;;5073050;28;20021;-74
2023/03/16 13:29:18;;;;;;;3.70;1.02;;;;;;;;;;5059127;28;20213;-73
2023/03/16 13:31:44;;;;;;;6.20;1.35;;;;;;;;;;5052092;28;20031;-72
2023/03/16 13:34:17;;;;;;;5.35;1.30;;;;;;;;;;5052527;28;20028;-71
2023/03/16 13:36:44;;;;;;;4.78;1.35;;;;;;;;;;5052531;28;20032;-72
2023/03/16 13:39:23;;;;;;;8.05;1.55;;;;;;;;;;5052665;28;20092;-70
2023/03/16 13:42:03;;;;;;;6.32;1.50;;;;;;;;;;5046716;28;20144;-72
2023/03/16 13:44:30;;;;;;;3.88;1.27;;;;;;;;;;5049093;28;20036;-72
2023/03/16 13:46:56;;;;;;;5.28;1.50;;;;;;;;;;5052659;28;20564;-72
2023/03/16 13:49:22;;;;;;;10.18;3.85;;;;;;;;;;5052680;28;20059;-72
2023/03/16 13:51:48;;;;;;;5.57;1.50;;;;;;;;;;5049046;28;20025;-73
2023/03/16 13:54:36;;;;;;;13.40;3.53;;;;;;;;;;5052216;28;20490;-72
2023/03/16 13:57:05;;;;;;;8.27;2.00;;;;;;;;;;5046120;28;20031;-72
2023/03/16 13:59:31;;;;;;;5.57;1.30;;;;;;;;;;5050712;28;20068;-72
2023/03/16 14:02:00;;;;;;;12.15;1.60;;;;;;;;;;5045334;28;20053;-72
2023/03/16 14:04:31;;;;;;;7.25;1.80;;;;;;;;;;5052113;28;20029;-72
2023/03/16 14:07:02;;;;;;;6.90;1.42;;;;;;;;;;5048295;28;20105;-71
2023/03/16 14:09:30;;;;;;;6.75;2.03;;;;;;;;;;5048678;28;20076;-72
2023/03/16 14:11:57;;;;;;;6.60;1.67;;;;;;;;;;5051755;28;20025;-71
2023/03/16 14:14:30;;;;;;;5.30;1.60;;;;;;;;;;5052698;28;20552;-74
2023/03/16 14:17:02;;;;;;;6.32;1.95;;;;;;;;;;5048513;28;20021;-73
2023/03/16 14:19:34;;;;;;;8.35;1.63;;;;;;;;;;5051707;28;20048;-72
2023/03/16 14:22:03;;;;;;;7.38;1.88;;;;;;;;;;5044283;28;20024;-72
2023/03/16 14:24:29;;;;;;;7.45;1.50;;;;;;;;;;5051114;28;20028;-72
2023/03/16 14:26:56;;;;;;;7.22;1.58;;;;;;;;;;5051487;28;20021;-73
2023/03/16 14:29:25;;;;;;;7.53;1.95;;;;;;;;;;5051623;28;20028;-71
2023/03/16 14:31:51;;;;;;;6.22;1.75;;;;;;;;;;5051150;28;20012;-75
2023/03/16 14:34:20;;;;;;;10.73;1.60;;;;;;;;;;5051494;28;20424;-72
2023/03/16 14:36:47;;;;;;;7.22;1.50;;;;;;;;;;5051384;28;20071;-71
2023/03/16 14:39:16;;;;;;;5.90;1.52;;;;;;;;;;5051043;28;20033;-71